Macomb, Missouri
Current Conditions -  °F | °C
As of 11:53 PM on Saturday 22 Nov 2014 (Local Time) from KUNO Reporting Station
Clear Clear  
Wind Chill: 51°   Ceiling: Unl
Heat Index: 51°   Visibility: 10mi
Dew Point: 46°   Wind: 10mph
Humidity: 83%   Direction: 150°SSE
Pressure: 29.84"   Gusts: NA
Location:  37.09°N, 92.49°W
Report Text: KUNO 230553Z AUTO 15009KT 10SM CLR 11/08 A2984 RMK AO2 SLP103 T01060078 10111 20106 401220044 58027
Loading
Personal Weather Stations






























Interactive Weather Map New forecast layout! Learn more

10-Day Weather Forecast

Advertisements
Track Severe Weather on mobile